Time;durP1;ratioP1;P1;durP2;ratioP2;P2;SDS_P1;SDS_P2;PMS_P1;PMS_P2;Temp;Humidity;BMP_temperature;BMP_pressure;BME280_temperature;BME280_humidity;BME280_pressure;Samples;Min_cycle;Max_cycle;Signal;HPM_P1;HPM_P2
2023/07/23 00:00:11;;;;;;;8.68;4.10;;;;;;;14.52;86.06;101018.00;7404886;19;20413;-79
2023/07/23 00:02:39;;;;;;;6.00;4.10;;;;;;;14.51;85.94;101020.88;7402662;19;19926;-79
2023/07/23 00:05:11;;;;;;;6.10;3.50;;;;;;;14.50;86.27;101013.78;7407534;19;19978;-79
2023/07/23 00:07:39;;;;;;;;;;;;;;;14.36;86.81;101003.91;7408396;19;19910;-79
2023/07/23 00:10:10;;;;;;;6.97;3.28;;;;;;;14.45;86.19;101008.97;7404858;19;20570;-79
2023/07/23 00:12:39;;;;;;;8.07;3.80;;;;;;;14.46;86.21;101007.94;7407443;19;19922;-79
2023/07/23 00:15:08;;;;;;;8.15;3.38;;;;;;;14.46;86.06;101001.66;7404643;19;19915;-80
2023/07/23 00:17:36;;;;;;;6.63;3.20;;;;;;;14.42;85.88;100990.38;7404088;19;19944;-80
2023/07/23 00:20:06;;;;;;;6.70;3.30;;;;;;;14.41;85.64;100986.00;7405371;19;20023;-79
2023/07/23 00:22:37;;;;;;;5.30;3.10;;;;;;;14.37;86.05;100981.19;7404553;19;19925;-80
2023/07/23 00:25:07;;;;;;;7.43;4.03;;;;;;;14.34;86.08;100976.13;7403935;19;19914;-80
2023/07/23 00:27:35;;;;;;;7.13;2.80;;;;;;;14.32;85.89;100978.22;7404965;19;20320;-79
2023/07/23 00:30:05;;;;;;;4.82;2.83;;;;;;;14.31;85.96;100976.53;7409806;19;19914;-80
2023/07/23 00:32:33;;;;;;;7.18;2.78;;;;;;;14.31;86.20;100966.53;7406730;19;19918;-79
2023/07/23 00:35:03;;;;;;;7.45;3.28;;;;;;;14.32;86.39;100964.66;7406846;19;19934;-79
2023/07/23 00:37:31;;;;;;;6.10;2.97;;;;;;;14.31;86.13;100958.41;7410985;19;20329;-79
2023/07/23 00:40:03;;;;;;;6.65;3.55;;;;;;;14.31;86.35;100961.13;7407779;19;19947;-79
2023/07/23 00:42:32;;;;;;;9.70;3.25;;;;;;;14.28;86.25;100957.97;7405751;19;19918;-79
2023/07/23 00:45:02;;;;;;;9.15;4.00;;;;;;;14.26;86.28;100958.16;7400562;19;19930;-80
2023/07/23 00:47:31;;;;;;;6.28;3.55;;;;;;;14.24;86.57;100954.78;7404203;19;19914;-79
2023/07/23 00:49:59;;;;;;;5.65;3.90;;;;;;;14.22;86.58;100953.34;7405695;19;19927;-79
2023/07/23 00:52:28;;;;;;;6.78;3.30;;;;;;;14.18;86.60;100947.47;7417360;19;20325;-79
2023/07/23 00:54:57;;;;;;;7.22;3.17;;;;;;;14.17;86.97;100943.09;7410015;19;19922;-80
2023/07/23 00:57:29;;;;;;;6.80;3.40;;;;;;;14.16;87.13;100943.28;7405927;19;19935;-80
2023/07/23 00:59:59;;;;;;;7.50;3.70;;;;;;;14.15;87.19;100939.72;7403393;19;19940;-79
2023/07/23 01:02:28;;;;;;;7.15;3.15;;;;;;;14.12;87.29;100942.84;7403846;19;20362;-79
2023/07/23 01:04:58;;;;;;;8.98;3.55;;;;;;;14.08;87.68;100930.72;7404092;19;19939;-80
2023/07/23 01:07:28;;;;;;;8.43;3.45;;;;;;;14.10;88.12;100928.69;7405301;19;20274;-79
2023/07/23 01:09:57;;;;;;;9.73;3.78;;;;;;;14.09;87.86;100921.56;7403770;19;19921;-79
2023/07/23 01:12:30;;;;;;;7.55;3.53;;;;;;;14.06;88.36;100920.09;7403961;19;20027;-80
2023/07/23 01:14:59;;;;;;;5.90;3.90;;;;;;;14.05;88.30;100914.88;7402441;19;19923;-80
2023/07/23 01:17:28;;;;;;;6.82;3.45;;;;;;;14.04;88.09;100915.91;7403090;19;19919;-79
2023/07/23 01:20:04;;;;;;;11.63;4.38;;;;;;;14.03;89.26;100903.41;7403153;19;19914;-80
2023/07/23 01:22:36;;;;;;;7.82;4.32;;;;;;;14.00;88.93;100904.63;7403530;19;19914;-80
2023/07/23 01:25:06;;;;;;;7.22;3.67;;;;;;;14.00;88.69;100901.09;7402926;19;19923;-80
2023/07/23 01:27:35;;;;;;;7.00;4.32;;;;;;;13.99;89.02;100902.13;7402812;19;19982;-80
2023/07/23 01:30:04;;;;;;;9.55;4.40;;;;;;;13.98;89.23;100890.44;7402061;19;19978;-80
2023/07/23 01:32:33;;;;;;;8.95;4.40;;;;;;;13.99;88.95;100892.13;7402733;19;19922;-80
2023/07/23 01:35:09;;;;;;;7.60;4.47;;;;;;;14.00;89.17;100884.84;7402759;19;19933;-80
2023/07/23 01:37:40;;;;;;;9.25;4.00;;;;;;;13.99;89.14;100880.44;7402336;19;19926;-80
2023/07/23 01:40:10;;;;;;;6.18;4.32;;;;;;;13.98;89.34;100873.34;7402371;19;19918;-80
2023/07/23 01:42:38;;;;;;;8.40;4.20;;;;;;;13.96;89.00;100876.28;7404477;19;19925;-80
2023/07/23 01:45:08;;;;;;;5.82;3.83;;;;;;;13.97;89.07;100869.00;7400542;19;19922;-80
2023/07/23 01:47:37;;;;;;;7.28;4.03;;;;;;;13.97;88.97;100869.84;7402601;19;19967;-80
2023/07/23 01:50:07;;;;;;;6.47;3.60;;;;;;;13.97;89.13;100864.41;7402176;19;19938;-80
2023/07/23 01:52:36;;;;;;;9.43;4.00;;;;;;;13.98;89.28;100870.66;7401835;19;19939;-80
2023/07/23 01:55:08;;;;;;;8.45;3.90;;;;;;;13.96;89.52;100857.31;7401017;19;19989;-79
2023/07/23 01:57:37;;;;;;;7.00;4.20;;;;;;;13.96;89.69;100860.03;7399828;19;19982;-79
2023/07/23 02:00:07;;;;;;;9.90;4.28;;;;;;;13.96;89.33;100857.31;7402022;19;20317;-80
2023/07/23 02:02:35;;;;;;;11.13;4.40;;;;;;;13.97;89.22;100855.44;7401862;19;19918;-80
2023/07/23 02:05:05;;;;;;;7.57;3.60;;;;;;;13.96;89.16;100846.50;7401573;19;20398;-80
2023/07/23 02:07:33;;;;;;;7.75;4.13;;;;;;;13.97;89.59;100847.31;7400087;19;19926;-80
2023/07/23 02:10:02;;;;;;;8.10;3.80;;;;;;;13.98;89.54;100847.09;7401828;19;19911;-80
2023/07/23 02:12:35;;;;;;;8.02;3.38;;;;;;;14.00;89.64;100838.78;7401255;19;20286;-80
2023/07/23 02:15:04;;;;;;;10.02;4.25;;;;;;;13.99;89.57;100843.38;7402106;19;19935;-80
2023/07/23 02:17:32;;;;;;;7.65;3.88;;;;;;;13.99;89.54;100835.25;7401292;19;19974;-80
2023/07/23 02:20:01;;;;;;;7.03;3.42;;;;;;;13.99;89.67;100831.69;7401636;19;19915;-80
2023/07/23 02:22:29;;;;;;;7.07;3.58;;;;;;;14.00;89.67;100831.50;7401376;19;19929;-81
2023/07/23 02:24:58;;;;;;;5.80;3.40;;;;;;;14.00;89.57;100828.81;7400319;19;19922;-81
2023/07/23 02:27:27;;;;;;;9.73;3.60;;;;;;;14.00;89.57;100825.25;7401601;19;19919;-81
2023/07/23 02:29:58;;;;;;;6.75;3.50;;;;;;;14.00;89.80;100827.97;7404501;19;19919;-80
2023/07/23 02:32:26;;;;;;;8.35;3.47;;;;;;;14.01;89.86;100826.94;7401268;19;19943;-80
2023/07/23 02:34:55;;;;;;;7.53;3.75;;;;;;;13.99;90.06;100818.16;7401111;19;19982;-81
2023/07/23 02:37:24;;;;;;;6.45;3.25;;;;;;;13.99;90.10;100818.16;7401232;19;19923;-80
2023/07/23 02:39:55;;;;;;;7.75;3.45;;;;;;;14.00;90.11;100811.72;7400973;19;19935;-80
2023/07/23 02:42:25;;;;;;;6.55;3.42;;;;;;;14.00;90.38;100809.00;7402934;19;19918;-80
2023/07/23 02:44:53;;;;;;;8.23;3.83;;;;;;;14.01;90.15;100813.38;7399750;19;19925;-81
2023/07/23 02:47:25;;;;;;;6.80;3.40;;;;;;;14.01;90.46;100807.97;7399144;19;19936;-81
2023/07/23 02:49:53;;;;;;;4.38;2.75;;;;;;;14.01;90.11;100797.13;7400588;19;19918;-80
2023/07/23 02:52:22;;;;;;;5.90;3.38;;;;;;;14.01;90.33;100797.13;7400769;19;20330;-81
2023/07/23 02:54:50;;;;;;;9.73;4.20;;;;;;;13.99;90.23;100791.91;7400091;19;19922;-81
2023/07/23 02:57:19;;;;;;;6.78;2.83;;;;;;;13.99;90.42;100793.78;7399621;19;20297;-81
2023/07/23 02:59:48;;;;;;;6.07;2.83;;;;;;;13.98;90.45;100786.69;7403531;19;19947;-81
2023/07/23 03:02:16;;;;;;;6.72;3.60;;;;;;;13.95;90.26;100790.63;7401106;19;19919;-81
2023/07/23 03:04:48;;;;;;;7.28;3.67;;;;;;;13.95;90.28;100777.09;7403232;19;20304;-81
2023/07/23 03:07:16;;;;;;;8.13;4.20;;;;;;;13.95;90.07;100778.97;7405449;19;19922;-81
2023/07/23 03:09:45;;;;;;;7.00;3.80;;;;;;;13.94;90.29;100775.41;7407208;19;19978;-81
2023/07/23 03:12:13;;;;;;;12.27;4.43;;;;;;;13.94;90.09;100774.56;7406349;19;19925;-81
2023/07/23 03:14:42;;;;;;;7.10;3.65;;;;;;;13.92;90.32;100776.66;7404815;19;19926;-80
2023/07/23 03:17:11;;;;;;;6.32;3.65;;;;;;;13.94;90.40;100774.56;7409172;19;20286;-80
2023/07/23 03:19:39;;;;;;;9.40;3.70;;;;;;;13.92;90.30;100772.09;7407366;19;19931;-81
2023/07/23 03:22:10;;;;;;;8.80;3.92;;;;;;;13.92;90.38;100769.38;7405931;19;19943;-80
2023/07/23 03:24:39;;;;;;;9.65;4.18;;;;;;;13.92;90.66;100768.53;7408404;19;20365;-81
2023/07/23 03:27:08;;;;;;;7.47;3.63;;;;;;;13.93;90.45;100767.50;7408844;19;19918;-81
2023/07/23 03:29:36;;;;;;;9.23;4.00;;;;;;;13.92;90.48;100768.53;7406116;19;20554;-81
2023/07/23 03:32:05;;;;;;;8.20;4.05;;;;;;;13.93;90.52;100764.81;7406477;19;19974;-81
2023/07/23 03:34:34;;;;;;;6.65;3.88;;;;;;;13.93;90.62;100760.22;7406585;19;19931;-80
2023/07/23 03:37:02;;;;;;;6.35;3.70;;;;;;;13.94;90.43;100755.63;7407541;19;19915;-80
2023/07/23 03:39:34;;;;;;;8.00;3.95;;;;;;;13.95;90.21;100749.19;7407148;19;19926;-80
2023/07/23 03:42:03;;;;;;;9.05;3.83;;;;;;;13.96;90.61;100748.16;7409557;19;20339;-80
2023/07/23 03:44:32;;;;;;;8.25;5.05;;;;;;;13.97;90.42;100744.41;7405991;19;19950;-80
2023/07/23 03:47:06;;;;;;;9.23;4.75;;;;;;;13.98;90.55;100743.34;7407530;19;19955;-80
2023/07/23 03:49:35;;;;;;;9.10;4.40;;;;;;;13.97;90.58;100739.81;7410533;19;19910;-80
2023/07/23 03:52:04;;;;;;;10.48;5.82;;;;;;;13.97;90.37;100736.28;7408469;19;19923;-80
2023/07/23 03:54:36;;;;;;;10.02;4.85;;;;;;;13.97;90.45;100742.53;7406266;19;19978;-80
2023/07/23 03:57:04;;;;;;;;;;;;;;;13.86;90.79;100734.13;7408285;19;19985;-80
2023/07/23 03:59:37;;;;;;;11.45;4.47;;;;;;;13.94;90.34;100733.94;7405425;19;20333;-80
2023/07/23 04:02:06;;;;;;;10.38;4.43;;;;;;;13.98;90.59;100727.09;7405736;19;19996;-80
2023/07/23 04:04:35;;;;;;;8.07;4.43;;;;;;;13.98;90.20;100727.94;7405144;19;19918;-80
2023/07/23 04:07:05;;;;;;;9.38;4.55;;;;;;;14.00;90.35;100727.75;7403789;19;20342;-80
2023/07/23 04:09:37;;;;;;;9.45;4.25;;;;;;;14.00;90.22;100720.47;7404195;19;19982;-80
2023/07/23 04:12:06;;;;;;;9.02;5.10;;;;;;;14.01;90.08;100730.25;7404749;19;19919;-80
2023/07/23 04:14:42;;;;;;;9.10;4.22;;;;;;;14.04;89.97;100726.28;7404926;19;20345;-80
2023/07/23 04:17:10;;;;;;;8.95;4.32;;;;;;;14.04;89.84;100721.72;7405762;19;19955;-80
2023/07/23 04:19:39;;;;;;;11.02;4.78;;;;;;;14.06;89.47;100721.53;7406784;19;19948;-80
2023/07/23 04:22:08;;;;;;;7.20;4.25;;;;;;;14.07;89.60;100715.03;7408254;19;20358;-80
2023/07/23 04:24:39;;;;;;;10.15;4.75;;;;;;;14.07;89.57;100712.34;7406511;19;19919;-79
2023/07/23 04:27:07;;;;;;;7.70;4.07;;;;;;;14.08;89.53;100704.03;7403145;19;19981;-80
2023/07/23 04:29:36;;;;;;;6.18;4.00;;;;;;;14.09;89.75;100705.69;7404469;19;19922;-80
2023/07/23 04:32:05;;;;;;;9.52;4.10;;;;;;;14.11;89.48;100704.66;7404740;19;19915;-80
2023/07/23 04:34:33;;;;;;;9.13;4.25;;;;;;;14.10;89.62;100698.41;7404011;19;19982;-80
2023/07/23 04:37:02;;;;;;;6.93;4.20;;;;;;;14.12;89.59;100700.88;7404379;19;19919;-80
2023/07/23 04:39:31;;;;;;;6.57;3.95;;;;;;;14.13;89.35;100697.16;7404115;19;19922;-80
2023/07/23 04:42:03;;;;;;;8.02;4.13;;;;;;;14.12;89.56;100696.31;7404115;19;20566;-80
2023/07/23 04:44:31;;;;;;;11.18;4.15;;;;;;;14.12;89.44;100696.31;7402977;19;20337;-80
2023/07/23 04:47:00;;;;;;;9.98;4.95;;;;;;;14.14;89.58;100694.25;7402917;19;19919;-81
2023/07/23 04:49:29;;;;;;;6.63;3.97;;;;;;;14.16;89.15;100683.19;7403652;19;19923;-80
2023/07/23 04:51:57;;;;;;;7.18;4.78;;;;;;;14.19;89.41;100688.22;7403358;19;19927;-81
2023/07/23 04:54:26;;;;;;;9.40;4.93;;;;;;;14.22;89.26;100685.09;7403729;19;20675;-81
2023/07/23 04:56:54;;;;;;;7.10;4.20;;;;;;;14.24;89.02;100673.00;7400689;19;20270;-81
2023/07/23 04:59:26;;;;;;;9.13;5.32;;;;;;;14.27;89.68;100682.59;7406237;19;19922;-81
2023/07/23 05:01:54;;;;;;;6.07;4.53;;;;;;;14.27;89.06;100678.03;7404858;19;19919;-81
2023/07/23 05:04:23;;;;;;;9.85;4.13;;;;;;;14.26;89.12;100662.78;7403602;19;19919;-81
2023/07/23 05:06:52;;;;;;;7.93;4.18;;;;;;;14.26;89.41;100665.50;7405494;19;20644;-80
2023/07/23 05:09:21;;;;;;;7.68;4.57;;;;;;;14.28;89.52;100668.81;7402743;19;20329;-80
2023/07/23 05:11:49;;;;;;;12.52;4.85;;;;;;;14.29;89.18;100667.78;7401069;19;19993;-80
2023/07/23 05:14:18;;;;;;;6.80;4.07;;;;;;;14.31;89.62;100659.47;7407596;19;19923;-80
2023/07/23 05:16:49;;;;;;;7.40;4.80;;;;;;;14.33;89.41;100660.91;7407864;19;19932;-81
2023/07/23 05:19:17;;;;;;;9.90;3.85;;;;;;;14.33;89.47;100655.50;7409463;19;20363;-80
2023/07/23 05:21:46;;;;;;;8.50;4.28;;;;;;;14.35;89.57;100653.47;7407146;19;19918;-80
2023/07/23 05:24:14;;;;;;;10.73;4.70;;;;;;;14.34;89.42;100643.63;7407385;19;19943;-80
2023/07/23 05:26:43;;;;;;;10.23;4.65;;;;;;;14.36;89.44;100651.59;7402386;19;19923;-80
2023/07/23 05:29:12;;;;;;;10.15;4.65;;;;;;;14.37;89.63;100653.25;7403890;19;19928;-81
2023/07/23 05:31:40;;;;;;;10.63;4.38;;;;;;;14.37;89.86;100659.50;7402008;19;19939;-80
2023/07/23 05:34:11;;;;;;;8.13;4.35;;;;;;;14.39;89.64;100643.88;7402729;19;19922;-80
2023/07/23 05:36:40;;;;;;;7.90;4.57;;;;;;;14.41;89.78;100640.97;7401661;19;19931;-80
2023/07/23 05:39:09;;;;;;;8.57;4.45;;;;;;;14.43;89.44;100637.00;7402514;19;19959;-80
2023/07/23 05:41:37;;;;;;;6.85;4.35;;;;;;;14.43;89.50;100636.16;7402327;19;20249;-80
2023/07/23 05:44:07;;;;;;;9.38;4.75;;;;;;;14.43;89.50;100636.16;7402142;19;19947;-80
2023/07/23 05:46:35;;;;;;;12.48;4.85;;;;;;;14.44;89.43;100630.53;7403992;19;20274;-80
2023/07/23 05:49:04;;;;;;;8.52;4.85;;;;;;;14.46;89.19;100633.03;7402757;19;19926;-80
2023/07/23 05:51:35;;;;;;;8.48;5.07;;;;;;;14.49;89.52;100628.06;7401918;19;19957;-80
2023/07/23 05:54:04;;;;;;;10.18;5.57;;;;;;;14.52;89.71;100624.91;7402350;19;19936;-80
2023/07/23 05:56:32;;;;;;;8.00;5.15;;;;;;;14.54;89.23;100621.97;7402420;19;19911;-80
2023/07/23 05:59:01;;;;;;;11.07;5.18;;;;;;;14.54;89.41;100611.97;7401704;19;19947;-80
2023/07/23 06:01:29;;;;;;;8.98;4.95;;;;;;;14.57;89.10;100613.44;7402101;19;19944;-80
2023/07/23 06:03:58;;;;;;;8.88;5.35;;;;;;;14.58;89.12;100611.56;7399693;19;20022;-80
2023/07/23 06:06:27;;;;;;;7.95;4.70;;;;;;;14.61;89.06;100608.44;7401810;19;19910;-80
2023/07/23 06:08:58;;;;;;;7.68;4.50;;;;;;;14.64;89.13;100613.41;7399559;19;20365;-81
2023/07/23 06:11:27;;;;;;;9.23;5.43;;;;;;;14.67;89.03;100611.13;7401655;19;19922;-80
2023/07/23 06:13:55;;;;;;;10.57;5.10;;;;;;;14.70;88.93;100612.59;7401226;19;19914;-80
2023/07/23 06:16:24;;;;;;;9.73;4.68;;;;;;;14.72;88.93;100614.03;7401496;19;19966;-81
2023/07/23 06:18:53;;;;;;;9.48;4.32;;;;;;;14.75;88.85;100616.34;7401025;19;20285;-81
2023/07/23 06:21:21;;;;;;;6.95;4.25;;;;;;;14.77;88.98;100592.56;7404078;19;19994;-81
2023/07/23 06:23:50;;;;;;;8.98;4.35;;;;;;;14.80;88.75;100589.41;7401386;19;19978;-81
2023/07/23 06:26:22;;;;;;;9.40;5.07;;;;;;;14.82;88.78;100594.63;7401241;19;19983;-81
2023/07/23 06:28:51;;;;;;;7.50;4.60;;;;;;;14.83;88.47;100596.31;7399927;19;19915;-81
2023/07/23 06:31:19;;;;;;;10.57;5.22;;;;;;;14.86;88.38;100583.16;7400905;19;19939;-81
2023/07/23 06:33:48;;;;;;;11.23;5.47;;;;;;;14.91;88.72;100582.53;7400164;19;20598;-81
2023/07/23 06:36:16;;;;;;;11.82;5.40;;;;;;;14.97;88.69;100587.91;7401086;19;19914;-81
2023/07/23 06:38:46;;;;;;;9.05;5.13;;;;;;;15.04;88.45;100585.19;7401176;19;19915;-81
2023/07/23 06:41:14;;;;;;;11.32;4.68;;;;;;;15.09;88.72;100581.84;7400789;19;19991;-81
2023/07/23 06:43:46;;;;;;;9.43;5.45;;;;;;;15.14;88.48;100580.19;7399084;19;19982;-79
2023/07/23 06:46:18;;;;;;;10.27;4.65;;;;;;;15.17;88.28;100592.47;7402545;19;19915;-80
2023/07/23 06:48:46;;;;;;;;;;;;;;;15.08;88.32;100578.31;7402065;19;20513;-80
2023/07/23 06:51:15;;;;;;;12.73;5.30;;;;;;;15.22;88.11;100576.38;7404291;19;19923;-80
2023/07/23 06:53:45;;;;;;;8.73;5.15;;;;;;;15.27;88.60;100587.44;7405212;19;19932;-80
2023/07/23 06:56:15;;;;;;;8.13;4.68;;;;;;;15.29;87.96;100583.44;7406790;19;20034;-80
2023/07/23 06:58:48;;;;;;;8.30;4.90;;;;;;;15.30;88.10;100582.41;7403604;19;19922;-80
2023/07/23 07:01:16;;;;;;;8.73;5.32;;;;;;;15.32;87.72;100576.75;7405828;19;19919;-79
2023/07/23 07:03:45;;;;;;;8.40;4.75;;;;;;;15.33;87.88;100575.69;7403829;19;19910;-80
2023/07/23 07:06:15;;;;;;;9.18;5.75;;;;;;;15.34;87.78;100572.78;7401253;19;19919;-80
2023/07/23 07:08:44;;;;;;;8.98;5.72;;;;;;;15.35;87.53;100570.91;7398693;19;19922;-80
2023/07/23 07:11:12;;;;;;;10.20;4.82;;;;;;;15.32;87.12;100574.88;7399805;19;19918;-80
2023/07/23 07:13:41;;;;;;;10.02;5.22;;;;;;;15.32;87.77;100572.16;7399930;19;19914;-80
2023/07/23 07:16:12;;;;;;;10.40;5.63;;;;;;;15.33;87.69;100576.53;7399676;19;19958;-80
2023/07/23 07:18:41;;;;;;;8.73;6.03;;;;;;;15.34;87.22;100570.06;7398842;19;19974;-80
2023/07/23 07:21:09;;;;;;;12.35;5.07;;;;;;;15.37;87.31;100572.34;7400685;19;19918;-80
2023/07/23 07:23:38;;;;;;;8.48;4.97;;;;;;;15.38;87.04;100563.16;7399694;19;19915;-80
2023/07/23 07:26:07;;;;;;;8.02;4.68;;;;;;;15.39;87.52;100564.00;7400266;19;19918;-80
2023/07/23 07:28:36;;;;;;;9.35;5.20;;;;;;;15.44;87.51;100570.41;7400393;19;19939;-80
2023/07/23 07:31:05;;;;;;;8.30;4.82;;;;;;;15.42;87.23;100561.69;7402021;19;19923;-80
2023/07/23 07:33:37;;;;;;;10.05;5.20;;;;;;;15.42;87.44;100564.38;7404450;19;19935;-80
2023/07/23 07:36:05;;;;;;;10.60;5.75;;;;;;;15.43;87.32;100567.94;7400543;19;19911;-81
2023/07/23 07:38:34;;;;;;;10.93;4.80;;;;;;;15.42;87.22;100560.84;7399614;19;20751;-81
2023/07/23 07:41:03;;;;;;;10.20;6.57;;;;;;;15.41;87.07;100565.44;7401440;19;19931;-81
2023/07/23 07:43:31;;;;;;;11.10;4.82;;;;;;;15.41;86.92;100562.72;7398868;19;19918;-81
2023/07/23 07:46:02;;;;;;;12.93;5.30;;;;;;;15.42;87.30;100569.81;7398283;19;19923;-81
2023/07/23 07:48:33;;;;;;;12.88;5.70;;;;;;;15.43;87.25;100555.19;7397308;19;20341;-81
2023/07/23 07:51:06;;;;;;;10.30;5.68;;;;;;;15.46;87.19;100556.63;7398357;19;19918;-80
2023/07/23 07:53:37;;;;;;;10.50;5.40;;;;;;;15.50;87.53;100560.63;7401135;19;19944;-81
2023/07/23 07:56:08;;;;;;;12.50;6.32;;;;;;;15.51;87.37;100556.03;7405649;19;19932;-80
2023/07/23 07:58:37;;;;;;;9.00;5.25;;;;;;;15.53;87.96;100549.34;7405551;19;19974;-81
2023/07/23 08:01:06;;;;;;;10.85;6.10;;;;;;;15.54;87.76;100551.00;7404248;19;19927;-81
2023/07/23 08:03:35;;;;;;;12.13;5.22;;;;;;;15.55;87.50;100551.81;7406855;19;19923;-81
2023/07/23 08:06:07;;;;;;;7.78;5.45;;;;;;;15.55;87.76;100549.09;7403677;19;20357;-81
2023/07/23 08:08:38;;;;;;;11.50;5.72;;;;;;;15.58;87.88;100552.22;7405496;19;19970;-81
2023/07/23 08:11:08;;;;;;;11.02;5.63;;;;;;;15.59;87.78;100553.88;7408073;19;19918;-81
2023/07/23 08:13:39;;;;;;;8.70;5.32;;;;;;;15.61;87.55;100546.38;7404808;19;19919;-81
2023/07/23 08:16:09;;;;;;;10.43;5.85;;;;;;;15.61;87.09;100542.81;7404714;19;19926;-80
2023/07/23 08:18:38;;;;;;;10.65;6.07;;;;;;;15.63;87.01;100544.25;7404884;19;19923;-81
2023/07/23 08:21:10;;;;;;;9.38;4.82;;;;;;;15.64;87.19;100540.50;7408432;19;20322;-81
2023/07/23 08:23:39;;;;;;;11.77;6.40;;;;;;;15.65;87.36;100546.75;7407857;19;19974;-81
2023/07/23 08:26:09;;;;;;;12.88;6.68;;;;;;;15.65;87.27;100546.75;7404314;19;19932;-81
2023/07/23 08:28:41;;;;;;;9.48;5.55;;;;;;;15.63;87.59;100543.41;7402879;19;20326;-81
2023/07/23 08:31:10;;;;;;;10.18;5.32;;;;;;;15.62;87.18;100555.34;7403351;19;19948;-81
2023/07/23 08:33:42;;;;;;;10.68;4.82;;;;;;;15.60;87.25;100543.88;7404033;19;19935;-82
2023/07/23 08:36:14;;;;;;;10.07;5.53;;;;;;;15.60;87.41;100544.69;7406815;19;19960;-83
2023/07/23 08:38:43;;;;;;;11.27;5.55;;;;;;;15.60;87.11;100555.56;7407842;19;19914;-81
2023/07/23 08:41:24;;;;;;;11.27;5.13;;;;;;;15.60;87.57;100554.72;7412912;19;19918;-81
2023/07/23 08:44:40;;;;;;;12.75;5.28;;;;;;;15.55;87.68;100555.38;7408426;19;19978;-82
2023/07/23 08:47:13;;;;;;;10.35;5.32;;;;;;;15.63;87.87;100548.84;7402103;19;19923;-82
2023/07/23 08:49:43;;;;;;;9.27;5.05;;;;;;;15.66;87.59;100559.31;7398874;19;19919;-82
2023/07/23 08:52:15;;;;;;;10.57;5.80;;;;;;;15.67;88.05;100555.50;7401872;19;19944;-82
2023/07/23 08:54:44;;;;;;;8.75;5.15;;;;;;;15.69;87.61;100562.41;7401271;19;19940;-82
2023/07/23 08:57:13;;;;;;;10.18;5.53;;;;;;;15.71;87.55;100560.28;7402531;19;19978;-82
2023/07/23 08:59:43;;;;;;;7.80;4.90;;;;;;;15.69;87.55;100561.56;7399204;19;20341;-82
2023/07/23 09:02:13;;;;;;;10.73;5.38;;;;;;;15.69;87.94;100567.00;7399662;19;19914;-82
2023/07/23 09:04:42;;;;;;;9.70;5.28;;;;;;;15.70;87.77;100555.94;7398127;19;19922;-82
2023/07/23 09:07:15;;;;;;;9.52;4.78;;;;;;;15.70;87.57;100557.81;7399312;19;20435;-81
2023/07/23 09:09:43;;;;;;;9.45;4.68;;;;;;;15.69;87.60;100558.84;7397911;19;19923;-81
2023/07/23 09:12:12;;;;;;;8.20;5.00;;;;;;;15.70;87.69;100563.25;7399338;19;19911;-82
2023/07/23 09:14:44;;;;;;;8.43;4.82;;;;;;;15.67;88.36;100566.38;7401293;19;19918;-82
2023/07/23 09:17:21;;;;;;;8.23;4.53;;;;;;;15.67;88.05;100566.38;7399654;19;19934;-81
2023/07/23 09:19:50;;;;;;;7.35;5.00;;;;;;;15.68;87.90;100568.88;7403181;19;20367;-82
2023/07/23 09:22:21;;;;;;;7.47;4.30;;;;;;;15.68;87.95;100570.75;7400869;19;19921;-81
2023/07/23 09:24:50;;;;;;;8.68;4.65;;;;;;;15.69;87.92;100569.72;7403386;19;19918;-81
2023/07/23 09:27:19;;;;;;;7.15;4.40;;;;;;;15.69;88.05;100580.59;7402294;19;19982;-81
2023/07/23 09:29:48;;;;;;;6.78;4.00;;;;;;;15.66;88.31;100573.69;7401187;19;19966;-81
2023/07/23 09:32:26;;;;;;;6.15;4.15;;;;;;;15.61;88.41;100583.56;7402830;19;19926;-81
2023/07/23 09:34:55;;;;;;;8.45;3.30;;;;;;;15.61;87.81;100591.69;7403204;19;19929;-81
2023/07/23 09:37:29;;;;;;;5.78;3.60;;;;;;;15.62;88.40;100577.06;7402764;19;19925;-81
2023/07/23 09:39:58;;;;;;;7.35;4.40;;;;;;;15.64;88.44;100583.94;7403520;19;19918;-81
2023/07/23 09:42:27;;;;;;;10.10;4.32;;;;;;;15.66;88.36;100591.88;7411768;19;19924;-82
2023/07/23 09:44:55;;;;;;;6.07;4.22;;;;;;;15.64;88.08;100596.69;7410059;19;20624;-81
2023/07/23 09:47:28;;;;;;;9.95;3.75;;;;;;;15.61;88.48;100594.41;7408157;19;20241;-81
2023/07/23 09:50:01;;;;;;;7.00;4.43;;;;;;;15.62;87.89;100596.09;7403759;19;19939;-81
2023/07/23 09:52:38;;;;;;;6.22;3.15;;;;;;;15.64;88.06;100594.81;7404600;19;19921;-79
2023/07/23 09:55:10;;;;;;;6.72;3.55;;;;;;;15.66;88.00;100586.47;7418596;19;19914;-81
2023/07/23 09:57:40;;;;;;;8.27;4.20;;;;;;;15.66;87.99;100603.56;7402933;19;19915;-81
2023/07/23 10:00:10;;;;;;;7.68;3.30;;;;;;;15.67;87.80;100590.81;7409565;19;20183;-81
2023/07/23 10:02:42;;;;;;;6.25;3.53;;;;;;;15.70;88.18;100591.25;7405255;19;19932;-81
2023/07/23 10:05:12;;;;;;;;;;;;;;;15.67;88.66;100594.38;7407228;19;19923;-81
2023/07/23 10:07:43;;;;;;;5.75;3.22;;;;;;;15.78;87.98;100590.16;7401622;19;19955;-82
2023/07/23 10:10:14;;;;;;;5.38;3.42;;;;;;;15.84;87.40;100587.38;7401488;19;19910;-82
2023/07/23 10:12:43;;;;;;;5.50;3.03;;;;;;;15.92;87.24;100580.03;7401669;19;19951;-81
2023/07/23 10:15:12;;;;;;;4.72;2.90;;;;;;;15.97;87.25;100588.34;7402394;19;19914;-81
2023/07/23 10:17:44;;;;;;;4.60;3.08;;;;;;;15.99;87.36;100594.41;7399599;19;19986;-81
2023/07/23 10:20:15;;;;;;;5.22;3.40;;;;;;;15.99;87.21;100594.41;7406184;19;19923;-81
2023/07/23 10:22:47;;;;;;;5.55;3.03;;;;;;;15.98;87.27;100590.00;7404161;19;20348;-81
2023/07/23 10:25:30;;;;;;;5.97;3.28;;;;;;;15.93;86.81;100597.97;7400559;19;20544;-81
2023/07/23 10:28:00;;;;;;;;;;;;;;;15.84;88.03;100589.25;7403814;19;19915;-81
2023/07/23 10:30:29;;;;;;;5.53;3.65;;;;;;;15.92;87.63;100586.28;7399597;19;20254;-81
2023/07/23 10:33:34;;;;;;;6.53;3.70;;;;;;;15.89;87.07;100593.00;7401184;19;19918;-80
2023/07/23 10:36:04;;;;;;;4.93;3.15;;;;;;;15.90;86.71;100588.41;7402169;19;20539;-80
2023/07/23 10:38:38;;;;;;;5.13;3.53;;;;;;;15.88;87.04;100587.75;7405089;19;19974;-81
2023/07/23 10:41:07;;;;;;;5.40;3.40;;;;;;;15.88;86.72;100587.75;7400772;19;19974;-81
2023/07/23 10:43:44;;;;;;;6.07;3.42;;;;;;;15.86;86.76;100592.59;7400714;19;19923;-81
2023/07/23 10:46:14;;;;;;;5.80;3.83;;;;;;;15.88;86.92;100602.19;7401275;19;20400;-81
2023/07/23 10:48:47;;;;;;;8.68;4.15;;;;;;;15.89;86.88;100597.59;7401100;19;19974;-81
2023/07/23 10:51:18;;;;;;;5.45;3.50;;;;;;;15.89;86.91;100593.00;7400936;19;19923;-81
2023/07/23 10:54:00;;;;;;;4.82;3.33;;;;;;;15.89;86.57;100582.13;7400367;19;19915;-81
2023/07/23 10:56:31;;;;;;;5.60;3.25;;;;;;;15.93;86.55;100589.81;7400362;19;19914;-81
2023/07/23 10:59:06;;;;;;;6.18;3.55;;;;;;;15.95;86.09;100583.13;7400618;19;20373;-82
2023/07/23 11:01:38;;;;;;;4.70;3.50;;;;;;;15.95;86.40;100577.72;7400429;19;19926;-81
2023/07/23 11:04:11;;;;;;;6.28;3.58;;;;;;;15.99;86.48;100587.09;7400735;19;20535;-81
2023/07/23 11:06:41;;;;;;;6.00;3.55;;;;;;;16.03;86.40;100579.31;7399919;19;19943;-81
2023/07/23 11:09:13;;;;;;;5.13;2.95;;;;;;;16.04;86.08;100600.84;7398216;19;19918;-82
2023/07/23 11:11:43;;;;;;;5.78;2.97;;;;;;;16.07;86.16;100594.97;7403013;19;19914;-82
2023/07/23 11:14:22;;;;;;;6.72;3.15;;;;;;;16.03;85.82;100588.31;7398128;19;19926;-81
2023/07/23 11:16:52;;;;;;;4.90;3.17;;;;;;;16.10;86.16;100591.81;7399864;19;19918;-81
2023/07/23 11:19:23;;;;;;;4.15;3.30;;;;;;;16.12;85.85;100578.00;7402606;19;19922;-81
2023/07/23 11:21:54;;;;;;;5.60;2.83;;;;;;;16.16;85.67;100582.78;7406194;19;19940;-82
2023/07/23 11:24:27;;;;;;;6.60;3.25;;;;;;;16.19;86.05;100584.22;7402886;19;19918;-82
2023/07/23 11:26:59;;;;;;;3.75;3.00;;;;;;;16.23;85.75;100580.00;7399474;19;19959;-81
2023/07/23 11:29:27;;;;;;;;;;;;;;;16.19;86.23;100586.94;7405705;19;19910;-82
2023/07/23 11:31:56;;;;;;;4.60;2.90;;;;;;;16.27;85.30;100584.78;7405997;19;20369;-82
2023/07/23 11:34:26;;;;;;;5.18;3.17;;;;;;;16.27;85.54;100587.50;7405916;19;19914;-82
2023/07/23 11:36:55;;;;;;;5.45;2.88;;;;;;;16.28;85.57;100583.72;7406143;19;20409;-80